sensor_id;sensor_type;location;lat;lon;timestamp;pressure;altitude;pressure_sealevel;temperature;humidity
6829;BME280;17930;48.592;8.868;2022-07-29T00:01:21;96634.06;;;18.07;100.00
6829;BME280;17930;48.592;8.868;2022-07-29T00:03:48;96631.41;;;17.87;100.00
6829;BME280;17930;48.592;8.868;2022-07-29T00:06:15;96625.81;;;17.89;100.00
6829;BME280;17930;48.592;8.868;2022-07-29T00:08:42;96614.94;;;18.10;100.00
6829;BME280;17930;48.592;8.868;2022-07-29T00:11:08;96616.53;;;18.03;100.00
6829;BME280;17930;48.592;8.868;2022-07-29T00:13:35;96621.13;;;17.94;100.00
6829;BME280;17930;48.592;8.868;2022-07-29T00:16:04;96620.47;;;17.97;100.00
6829;BME280;17930;48.592;8.868;2022-07-29T00:18:31;96619.28;;;17.86;100.00
6829;BME280;17930;48.592;8.868;2022-07-29T00:20:57;96623.50;;;17.87;100.00
6829;BME280;17930;48.592;8.868;2022-07-29T00:23:24;96619.94;;;17.83;100.00
6829;BME280;17930;48.592;8.868;2022-07-29T00:25:50;96619.44;;;17.90;100.00
6829;BME280;17930;48.592;8.868;2022-07-29T00:28:17;96620.84;;;17.87;100.00
6829;BME280;17930;48.592;8.868;2022-07-29T00:30:44;96622.84;;;17.90;100.00
6829;BME280;17930;48.592;8.868;2022-07-29T00:33:12;96618.84;;;17.84;100.00
6829;BME280;17930;48.592;8.868;2022-07-29T00:35:38;96613.03;;;17.70;100.00
6829;BME280;17930;48.592;8.868;2022-07-29T00:38:10;96621.94;;;17.57;100.00
6829;BME280;17930;48.592;8.868;2022-07-29T00:40:37;96608.13;;;17.60;100.00
6829;BME280;17930;48.592;8.868;2022-07-29T00:43:04;96617.75;;;17.56;100.00
6829;BME280;17930;48.592;8.868;2022-07-29T00:45:31;96607.81;;;17.62;100.00
6829;BME280;17930;48.592;8.868;2022-07-29T00:47:57;96606.53;;;17.68;100.00
6829;BME280;17930;48.592;8.868;2022-07-29T00:50:26;96598.94;;;17.66;100.00
6829;BME280;17930;48.592;8.868;2022-07-29T00:52:52;96591.06;;;17.78;100.00
6829;BME280;17930;48.592;8.868;2022-07-29T00:55:19;96598.38;;;17.81;100.00
6829;BME280;17930;48.592;8.868;2022-07-29T00:57:46;96597.78;;;17.76;100.00
6829;BME280;17930;48.592;8.868;2022-07-29T01:00:16;96597.25;;;17.82;100.00
6829;BME280;17930;48.592;8.868;2022-07-29T01:02:43;96590.00;;;17.79;100.00
6829;BME280;17930;48.592;8.868;2022-07-29T01:05:11;96595.97;;;17.68;100.00
6829;BME280;17930;48.592;8.868;2022-07-29T01:07:41;96585.97;;;17.53;100.00
6829;BME280;17930;48.592;8.868;2022-07-29T01:10:09;96579.75;;;17.57;100.00
6829;BME280;17930;48.592;8.868;2022-07-29T01:12:39;96579.47;;;17.50;100.00
6829;BME280;17930;48.592;8.868;2022-07-29T01:15:07;96581.19;;;17.46;100.00
6829;BME280;17930;48.592;8.868;2022-07-29T01:17:37;96577.28;;;17.52;100.00
6829;BME280;17930;48.592;8.868;2022-07-29T01:20:09;96573.38;;;17.30;100.00
6829;BME280;17930;48.592;8.868;2022-07-29T01:22:58;96569.84;;;17.54;100.00
6829;BME280;17930;48.592;8.868;2022-07-29T01:25:48;96571.25;;;17.52;100.00
6829;BME280;17930;48.592;8.868;2022-07-29T01:28:46;96567.84;;;17.51;100.00
6829;BME280;17930;48.592;8.868;2022-07-29T01:31:16;96561.72;;;17.59;100.00
6829;BME280;17930;48.592;8.868;2022-07-29T01:33:56;96570.75;;;17.79;100.00
6829;BME280;17930;48.592;8.868;2022-07-29T01:36:30;96567.78;;;17.80;100.00
6829;BME280;17930;48.592;8.868;2022-07-29T01:39:05;96568.19;;;17.70;100.00
6829;BME280;17930;48.592;8.868;2022-07-29T01:41:34;96558.84;;;17.73;100.00
6829;BME280;17930;48.592;8.868;2022-07-29T01:44:13;96565.28;;;17.63;100.00
6829;BME280;17930;48.592;8.868;2022-07-29T01:46:49;96551.69;;;17.53;100.00
6829;BME280;17930;48.592;8.868;2022-07-29T01:49:21;96555.25;;;17.48;100.00
6829;BME280;17930;48.592;8.868;2022-07-29T01:51:52;96556.28;;;17.36;100.00
6829;BME280;17930;48.592;8.868;2022-07-29T01:54:25;96554.53;;;17.40;100.00
6829;BME280;17930;48.592;8.868;2022-07-29T01:56:55;96558.47;;;17.34;100.00
6829;BME280;17930;48.592;8.868;2022-07-29T01:59:25;96557.09;;;17.28;100.00
6829;BME280;17930;48.592;8.868;2022-07-29T02:01:54;96563.16;;;17.20;100.00
6829;BME280;17930;48.592;8.868;2022-07-29T02:04:21;96557.28;;;17.23;100.00
6829;BME280;17930;48.592;8.868;2022-07-29T02:06:51;96549.03;;;17.24;100.00
6829;BME280;17930;48.592;8.868;2022-07-29T02:09:20;96566.72;;;17.24;100.00
6829;BME280;17930;48.592;8.868;2022-07-29T02:11:50;96557.44;;;17.18;100.00
6829;BME280;17930;48.592;8.868;2022-07-29T02:14:20;96557.88;;;17.20;100.00
6829;BME280;17930;48.592;8.868;2022-07-29T02:16:52;96555.25;;;17.20;100.00
6829;BME280;17930;48.592;8.868;2022-07-29T02:19:22;96558.56;;;17.08;100.00
6829;BME280;17930;48.592;8.868;2022-07-29T02:21:52;96562.75;;;17.09;100.00
6829;BME280;17930;48.592;8.868;2022-07-29T02:24:22;96557.31;;;17.06;100.00
6829;BME280;17930;48.592;8.868;2022-07-29T02:26:51;96555.19;;;16.99;100.00
6829;BME280;17930;48.592;8.868;2022-07-29T02:29:21;96557.53;;;16.92;100.00
6829;BME280;17930;48.592;8.868;2022-07-29T02:31:50;96564.19;;;16.90;100.00
6829;BME280;17930;48.592;8.868;2022-07-29T02:34:19;96556.13;;;16.95;100.00
6829;BME280;17930;48.592;8.868;2022-07-29T02:36:47;96561.16;;;16.80;100.00
6829;BME280;17930;48.592;8.868;2022-07-29T02:39:14;96566.72;;;16.78;100.00
6829;BME280;17930;48.592;8.868;2022-07-29T02:41:44;96560.84;;;16.81;100.00
6829;BME280;17930;48.592;8.868;2022-07-29T02:44:14;96550.09;;;16.86;100.00
6829;BME280;17930;48.592;8.868;2022-07-29T02:46:45;96553.09;;;16.76;100.00
6829;BME280;17930;48.592;8.868;2022-07-29T02:49:18;96545.84;;;16.65;100.00
6829;BME280;17930;48.592;8.868;2022-07-29T02:51:53;96551.44;;;16.55;100.00
6829;BME280;17930;48.592;8.868;2022-07-29T02:54:29;96551.25;;;16.68;100.00
6829;BME280;17930;48.592;8.868;2022-07-29T02:56:59;96555.16;;;16.54;100.00
6829;BME280;17930;48.592;8.868;2022-07-29T02:59:28;96553.75;;;16.65;100.00
6829;BME280;17930;48.592;8.868;2022-07-29T03:01:57;96551.31;;;16.51;100.00
6829;BME280;17930;48.592;8.868;2022-07-29T03:04:28;96553.31;;;16.54;100.00
6829;BME280;17930;48.592;8.868;2022-07-29T03:06:58;96550.53;;;16.42;100.00
6829;BME280;17930;48.592;8.868;2022-07-29T03:09:26;96558.00;;;16.32;100.00
6829;BME280;17930;48.592;8.868;2022-07-29T03:11:54;96558.59;;;16.38;100.00
6829;BME280;17930;48.592;8.868;2022-07-29T03:14:22;96553.78;;;16.40;100.00
6829;BME280;17930;48.592;8.868;2022-07-29T03:16:50;96556.38;;;16.65;100.00
6829;BME280;17930;48.592;8.868;2022-07-29T03:19:18;96554.38;;;16.53;100.00
6829;BME280;17930;48.592;8.868;2022-07-29T03:21:46;96560.25;;;16.67;100.00
6829;BME280;17930;48.592;8.868;2022-07-29T03:24:30;96560.19;;;16.84;100.00
6829;BME280;17930;48.592;8.868;2022-07-29T03:26:58;96552.91;;;16.90;100.00
6829;BME280;17930;48.592;8.868;2022-07-29T03:29:25;96558.47;;;16.88;100.00
6829;BME280;17930;48.592;8.868;2022-07-29T03:31:52;96549.78;;;16.88;100.00
6829;BME280;17930;48.592;8.868;2022-07-29T03:34:19;96544.38;;;16.84;100.00
6829;BME280;17930;48.592;8.868;2022-07-29T03:36:47;96552.38;;;16.96;100.00
6829;BME280;17930;48.592;8.868;2022-07-29T03:39:18;96538.13;;;16.97;100.00
6829;BME280;17930;48.592;8.868;2022-07-29T03:41:48;96540.03;;;16.88;100.00
6829;BME280;17930;48.592;8.868;2022-07-29T03:44:17;96551.03;;;16.90;100.00
6829;BME280;17930;48.592;8.868;2022-07-29T03:46:46;96551.06;;;16.82;100.00
6829;BME280;17930;48.592;8.868;2022-07-29T03:49:16;96554.94;;;16.84;100.00
6829;BME280;17930;48.592;8.868;2022-07-29T03:51:43;96543.03;;;16.78;100.00
6829;BME280;17930;48.592;8.868;2022-07-29T03:54:11;96553.09;;;16.68;100.00
6829;BME280;17930;48.592;8.868;2022-07-29T03:56:41;96551.81;;;16.82;100.00
6829;BME280;17930;48.592;8.868;2022-07-29T03:59:13;96549.84;;;16.71;100.00
6829;BME280;17930;48.592;8.868;2022-07-29T04:01:41;96561.97;;;16.55;100.00
6829;BME280;17930;48.592;8.868;2022-07-29T04:04:08;96557.34;;;16.52;100.00
6829;BME280;17930;48.592;8.868;2022-07-29T04:06:39;96558.88;;;16.53;100.00
6829;BME280;17930;48.592;8.868;2022-07-29T04:09:06;96567.41;;;16.58;100.00
6829;BME280;17930;48.592;8.868;2022-07-29T04:11:36;96561.22;;;16.54;100.00
6829;BME280;17930;48.592;8.868;2022-07-29T04:14:04;96555.34;;;16.41;100.00
6829;BME280;17930;48.592;8.868;2022-07-29T04:16:31;96558.28;;;16.39;100.00
6829;BME280;17930;48.592;8.868;2022-07-29T04:18:58;96553.19;;;16.26;100.00
6829;BME280;17930;48.592;8.868;2022-07-29T04:21:25;96556.91;;;16.25;100.00
6829;BME280;17930;48.592;8.868;2022-07-29T04:23:51;96560.31;;;16.34;100.00
6829;BME280;17930;48.592;8.868;2022-07-29T04:26:19;96566.81;;;16.44;100.00
6829;BME280;17930;48.592;8.868;2022-07-29T04:28:47;96559.00;;;16.65;100.00
6829;BME280;17930;48.592;8.868;2022-07-29T04:31:14;96558.84;;;16.70;100.00
6829;BME280;17930;48.592;8.868;2022-07-29T04:33:40;96558.34;;;16.76;100.00
6829;BME280;17930;48.592;8.868;2022-07-29T04:36:07;96554.41;;;16.91;100.00
6829;BME280;17930;48.592;8.868;2022-07-29T04:38:37;96557.22;;;16.94;100.00
6829;BME280;17930;48.592;8.868;2022-07-29T04:41:03;96557.34;;;16.97;100.00
6829;BME280;17930;48.592;8.868;2022-07-29T04:43:30;96551.75;;;16.99;100.00
6829;BME280;17930;48.592;8.868;2022-07-29T04:45:58;96558.59;;;17.00;100.00
6829;BME280;17930;48.592;8.868;2022-07-29T04:48:25;96556.69;;;17.09;100.00
6829;BME280;17930;48.592;8.868;2022-07-29T04:50:52;96554.28;;;17.33;100.00
6829;BME280;17930;48.592;8.868;2022-07-29T04:53:19;96556.69;;;17.46;100.00
6829;BME280;17930;48.592;8.868;2022-07-29T04:55:45;96545.88;;;17.59;100.00
6829;BME280;17930;48.592;8.868;2022-07-29T04:58:12;96556.97;;;17.73;100.00
6829;BME280;17930;48.592;8.868;2022-07-29T05:00:39;96550.50;;;17.91;100.00
6829;BME280;17930;48.592;8.868;2022-07-29T05:03:07;96552.53;;;18.06;100.00
6829;BME280;17930;48.592;8.868;2022-07-29T05:05:33;96553.38;;;17.98;100.00
6829;BME280;17930;48.592;8.868;2022-07-29T05:08:00;96547.47;;;18.01;100.00
6829;BME280;17930;48.592;8.868;2022-07-29T05:10:27;96558.78;;;18.22;100.00
6829;BME280;17930;48.592;8.868;2022-07-29T05:12:54;96555.81;;;18.23;100.00
6829;BME280;17930;48.592;8.868;2022-07-29T05:15:20;96554.16;;;18.19;100.00
6829;BME280;17930;48.592;8.868;2022-07-29T05:17:47;96552.84;;;18.25;100.00
6829;BME280;17930;48.592;8.868;2022-07-29T05:20:15;96559.25;;;18.24;100.00
6829;BME280;17930;48.592;8.868;2022-07-29T05:22:43;96560.84;;;18.37;100.00
6829;BME280;17930;48.592;8.868;2022-07-29T05:25:10;96570.34;;;18.49;100.00
6829;BME280;17930;48.592;8.868;2022-07-29T05:27:36;96566.63;;;18.50;100.00
6829;BME280;17930;48.592;8.868;2022-07-29T05:30:04;96561.59;;;18.57;100.00
6829;BME280;17930;48.592;8.868;2022-07-29T05:32:31;96553.25;;;18.67;100.00
6829;BME280;17930;48.592;8.868;2022-07-29T05:34:57;96566.91;;;18.81;100.00
6829;BME280;17930;48.592;8.868;2022-07-29T05:37:25;96561.50;;;18.78;100.00
6829;BME280;17930;48.592;8.868;2022-07-29T05:39:52;96571.84;;;18.83;100.00
6829;BME280;17930;48.592;8.868;2022-07-29T05:42:19;96568.47;;;18.82;100.00
6829;BME280;17930;48.592;8.868;2022-07-29T05:44:45;96566.63;;;18.95;100.00
6829;BME280;17930;48.592;8.868;2022-07-29T05:47:12;96574.22;;;18.96;100.00
6829;BME280;17930;48.592;8.868;2022-07-29T05:49:39;96577.47;;;18.81;100.00
6829;BME280;17930;48.592;8.868;2022-07-29T05:52:06;96579.66;;;18.67;100.00
6829;BME280;17930;48.592;8.868;2022-07-29T05:54:34;96582.09;;;18.72;100.00
6829;BME280;17930;48.592;8.868;2022-07-29T05:57:00;96575.72;;;18.73;100.00
6829;BME280;17930;48.592;8.868;2022-07-29T05:59:27;96580.34;;;18.88;100.00
6829;BME280;17930;48.592;8.868;2022-07-29T06:01:54;96587.88;;;18.98;100.00
6829;BME280;17930;48.592;8.868;2022-07-29T06:04:22;96585.38;;;19.13;100.00
6829;BME280;17930;48.592;8.868;2022-07-29T06:06:48;96588.28;;;19.44;100.00
6829;BME280;17930;48.592;8.868;2022-07-29T06:09:15;96582.53;;;19.66;100.00
6829;BME280;17930;48.592;8.868;2022-07-29T06:11:43;96581.97;;;19.96;100.00
6829;BME280;17930;48.592;8.868;2022-07-29T06:14:10;96586.53;;;20.23;100.00
6829;BME280;17930;48.592;8.868;2022-07-29T06:16:36;96578.25;;;20.52;100.00
6829;BME280;17930;48.592;8.868;2022-07-29T06:19:03;96580.59;;;20.68;100.00
6829;BME280;17930;48.592;8.868;2022-07-29T06:21:30;96579.03;;;20.67;100.00
6829;BME280;17930;48.592;8.868;2022-07-29T06:23:57;96573.03;;;20.82;100.00
6829;BME280;17930;48.592;8.868;2022-07-29T06:26:23;96574.75;;;20.90;100.00
6829;BME280;17930;48.592;8.868;2022-07-29T06:28:51;96585.03;;;21.07;100.00
6829;BME280;17930;48.592;8.868;2022-07-29T06:31:18;96588.44;;;21.23;100.00
6829;BME280;17930;48.592;8.868;2022-07-29T06:33:45;96592.31;;;21.25;100.00
6829;BME280;17930;48.592;8.868;2022-07-29T06:36:11;96595.31;;;21.24;100.00
6829;BME280;17930;48.592;8.868;2022-07-29T06:38:38;96592.25;;;21.22;100.00
6829;BME280;17930;48.592;8.868;2022-07-29T06:41:07;96597.69;;;20.98;100.00
6829;BME280;17930;48.592;8.868;2022-07-29T06:43:39;96600.00;;;21.00;100.00
6829;BME280;17930;48.592;8.868;2022-07-29T06:46:10;96604.13;;;21.12;100.00
6829;BME280;17930;48.592;8.868;2022-07-29T06:48:38;96608.34;;;21.29;100.00
6829;BME280;17930;48.592;8.868;2022-07-29T06:51:05;96596.84;;;21.71;100.00
6829;BME280;17930;48.592;8.868;2022-07-29T06:53:32;96602.88;;;22.21;100.00
6829;BME280;17930;48.592;8.868;2022-07-29T06:56:01;96599.84;;;22.38;100.00
6829;BME280;17930;48.592;8.868;2022-07-29T06:58:28;96603.38;;;22.42;100.00
6829;BME280;17930;48.592;8.868;2022-07-29T07:00:55;96613.13;;;22.75;100.00
6829;BME280;17930;48.592;8.868;2022-07-29T07:03:24;96612.97;;;22.87;100.00
6829;BME280;17930;48.592;8.868;2022-07-29T07:05:51;96611.16;;;22.91;100.00
6829;BME280;17930;48.592;8.868;2022-07-29T07:08:18;96618.31;;;22.87;100.00
6829;BME280;17930;48.592;8.868;2022-07-29T07:10:45;96628.69;;;22.55;100.00
6829;BME280;17930;48.592;8.868;2022-07-29T07:13:12;96630.09;;;22.49;100.00
6829;BME280;17930;48.592;8.868;2022-07-29T07:15:39;96633.28;;;22.76;100.00
6829;BME280;17930;48.592;8.868;2022-07-29T07:18:06;96632.38;;;23.29;100.00
6829;BME280;17930;48.592;8.868;2022-07-29T07:20:36;96627.56;;;24.34;100.00
6829;BME280;17930;48.592;8.868;2022-07-29T07:23:02;96628.53;;;24.81;100.00
6829;BME280;17930;48.592;8.868;2022-07-29T07:25:30;96631.66;;;24.86;100.00
6829;BME280;17930;48.592;8.868;2022-07-29T07:27:56;96636.19;;;24.82;100.00
6829;BME280;17930;48.592;8.868;2022-07-29T07:30:23;96639.81;;;24.68;100.00
6829;BME280;17930;48.592;8.868;2022-07-29T07:32:50;96643.94;;;24.62;100.00
6829;BME280;17930;48.592;8.868;2022-07-29T07:35:16;96640.06;;;24.88;100.00
6829;BME280;17930;48.592;8.868;2022-07-29T07:37:45;96637.16;;;25.80;100.00
6829;BME280;17930;48.592;8.868;2022-07-29T07:40:12;96633.47;;;26.01;100.00
6829;BME280;17930;48.592;8.868;2022-07-29T07:42:39;96637.28;;;25.93;100.00
6829;BME280;17930;48.592;8.868;2022-07-29T07:45:07;96620.53;;;26.81;100.00
6829;BME280;17930;48.592;8.868;2022-07-29T07:47:35;96629.50;;;27.47;100.00
6829;BME280;17930;48.592;8.868;2022-07-29T07:50:03;96633.28;;;27.15;100.00
6829;BME280;17930;48.592;8.868;2022-07-29T07:52:30;96633.13;;;26.70;100.00
6829;BME280;17930;48.592;8.868;2022-07-29T07:54:58;96627.22;;;27.77;100.00
6829;BME280;17930;48.592;8.868;2022-07-29T07:57:25;96631.03;;;28.00;100.00
6829;BME280;17930;48.592;8.868;2022-07-29T07:59:51;96626.06;;;27.61;100.00
6829;BME280;17930;48.592;8.868;2022-07-29T08:02:18;96627.97;;;28.02;100.00
6829;BME280;17930;48.592;8.868;2022-07-29T08:04:45;96624.09;;;28.06;100.00
6829;BME280;17930;48.592;8.868;2022-07-29T08:07:11;96627.91;;;28.33;100.00
6829;BME280;17930;48.592;8.868;2022-07-29T08:09:40;96624.88;;;28.31;100.00
6829;BME280;17930;48.592;8.868;2022-07-29T08:12:14;96632.16;;;27.51;100.00
6829;BME280;17930;48.592;8.868;2022-07-29T08:14:40;96631.06;;;27.52;100.00
6829;BME280;17930;48.592;8.868;2022-07-29T08:17:07;96631.03;;;27.80;100.00
6829;BME280;17930;48.592;8.868;2022-07-29T08:19:34;96631.81;;;27.84;100.00
6829;BME280;17930;48.592;8.868;2022-07-29T08:22:01;96628.72;;;27.47;100.00
6829;BME280;17930;48.592;8.868;2022-07-29T08:24:28;96624.88;;;27.31;100.00
6829;BME280;17930;48.592;8.868;2022-07-29T08:27:19;96629.91;;;27.88;100.00
6829;BME280;17930;48.592;8.868;2022-07-29T08:29:46;96618.22;;;29.42;100.00
6829;BME280;17930;48.592;8.868;2022-07-29T08:32:12;96620.13;;;29.92;100.00
6829;BME280;17930;48.592;8.868;2022-07-29T08:34:39;96629.84;;;30.22;100.00
6829;BME280;17930;48.592;8.868;2022-07-29T08:37:06;96617.63;;;30.14;100.00
6829;BME280;17930;48.592;8.868;2022-07-29T08:39:32;96627.34;;;29.58;100.00
6829;BME280;17930;48.592;8.868;2022-07-29T08:41:59;96627.97;;;30.56;100.00
6829;BME280;17930;48.592;8.868;2022-07-29T08:44:27;96630.63;;;30.89;100.00
6829;BME280;17930;48.592;8.868;2022-07-29T08:46:54;96634.47;;;30.92;100.00
6829;BME280;17930;48.592;8.868;2022-07-29T08:49:21;96627.16;;;32.39;100.00
6829;BME280;17930;48.592;8.868;2022-07-29T08:51:47;96627.59;;;32.34;100.00
6829;BME280;17930;48.592;8.868;2022-07-29T08:54:16;96632.97;;;32.38;100.00
6829;BME280;17930;48.592;8.868;2022-07-29T08:56:44;96630.38;;;32.73;100.00
6829;BME280;17930;48.592;8.868;2022-07-29T08:59:14;96627.94;;;32.98;100.00
6829;BME280;17930;48.592;8.868;2022-07-29T09:01:44;96621.78;;;33.80;94.08
6829;BME280;17930;48.592;8.868;2022-07-29T09:04:13;96622.97;;;33.63;91.94
6829;BME280;17930;48.592;8.868;2022-07-29T09:06:44;96619.22;;;33.25;91.20
6829;BME280;17930;48.592;8.868;2022-07-29T09:09:11;96618.47;;;33.41;88.56
6829;BME280;17930;48.592;8.868;2022-07-29T09:11:39;96622.03;;;33.85;82.11
6829;BME280;17930;48.592;8.868;2022-07-29T09:14:06;96613.88;;;34.61;80.36
6829;BME280;17930;48.592;8.868;2022-07-29T09:16:50;96607.25;;;34.62;76.86
6829;BME280;17930;48.592;8.868;2022-07-29T09:19:23;96610.19;;;34.55;81.33
6829;BME280;17930;48.592;8.868;2022-07-29T09:21:50;96606.78;;;34.51;76.24
6829;BME280;17930;48.592;8.868;2022-07-29T09:24:36;96603.69;;;33.77;71.35
6829;BME280;17930;48.592;8.868;2022-07-29T09:27:08;96599.59;;;32.48;80.64
6829;BME280;17930;48.592;8.868;2022-07-29T09:29:36;96608.53;;;32.03;96.03
6829;BME280;17930;48.592;8.868;2022-07-29T09:32:08;96614.91;;;31.14;94.82
6829;BME280;17930;48.592;8.868;2022-07-29T09:34:36;96615.09;;;31.00;95.98
6829;BME280;17930;48.592;8.868;2022-07-29T09:37:03;96615.56;;;31.21;95.17
6829;BME280;17930;48.592;8.868;2022-07-29T09:39:31;96611.84;;;30.53;96.70
6829;BME280;17930;48.592;8.868;2022-07-29T09:42:00;96607.53;;;30.58;97.16
6829;BME280;17930;48.592;8.868;2022-07-29T09:44:40;96599.63;;;31.04;90.86
6829;BME280;17930;48.592;8.868;2022-07-29T09:47:09;96599.94;;;31.62;92.99
6829;BME280;17930;48.592;8.868;2022-07-29T09:49:50;96595.56;;;33.77;78.83
6829;BME280;17930;48.592;8.868;2022-07-29T09:52:17;96584.81;;;34.74;70.03
6829;BME280;17930;48.592;8.868;2022-07-29T09:54:44;96578.31;;;34.84;67.05
6829;BME280;17930;48.592;8.868;2022-07-29T09:57:22;96580.31;;;34.96;67.33
6829;BME280;17930;48.592;8.868;2022-07-29T09:59:55;96590.09;;;34.93;63.17
6829;BME280;17930;48.592;8.868;2022-07-29T10:02:28;96579.88;;;35.59;58.96
6829;BME280;17930;48.592;8.868;2022-07-29T10:04:55;96580.22;;;36.41;59.69
6829;BME280;17930;48.592;8.868;2022-07-29T10:07:22;96576.66;;;36.74;56.44
6829;BME280;17930;48.592;8.868;2022-07-29T10:09:56;96570.91;;;37.24;55.70
6829;BME280;17930;48.592;8.868;2022-07-29T10:12:24;96571.50;;;37.28;51.56
6829;BME280;17930;48.592;8.868;2022-07-29T10:14:51;96564.47;;;36.79;53.34
6829;BME280;17930;48.592;8.868;2022-07-29T10:17:18;96564.34;;;36.27;55.26
6829;BME280;17930;48.592;8.868;2022-07-29T10:19:46;96570.78;;;35.53;56.99
6829;BME280;17930;48.592;8.868;2022-07-29T10:22:14;96574.84;;;34.15;60.35
6829;BME280;17930;48.592;8.868;2022-07-29T10:24:40;96566.47;;;33.49;60.43
6829;BME280;17930;48.592;8.868;2022-07-29T10:27:08;96570.06;;;32.92;63.42
6829;BME280;17930;48.592;8.868;2022-07-29T10:29:35;96598.94;;;31.26;70.78
6829;BME280;17930;48.592;8.868;2022-07-29T10:32:19;96611.56;;;28.95;79.61
6829;BME280;17930;48.592;8.868;2022-07-29T10:35:19;96595.00;;;27.22;91.53
6829;BME280;17930;48.592;8.868;2022-07-29T10:38:10;96604.47;;;26.07;100.00
6829;BME280;17930;48.592;8.868;2022-07-29T10:40:48;96597.25;;;25.14;100.00
6829;BME280;17930;48.592;8.868;2022-07-29T10:43:36;96620.53;;;23.49;100.00
6829;BME280;17930;48.592;8.868;2022-07-29T10:46:04;96639.72;;;22.75;100.00
6829;BME280;17930;48.592;8.868;2022-07-29T10:48:31;96630.59;;;22.20;100.00
6829;BME280;17930;48.592;8.868;2022-07-29T10:51:01;96636.97;;;20.54;100.00
6829;BME280;17930;48.592;8.868;2022-07-29T10:53:48;96656.13;;;19.16;100.00
6829;BME280;17930;48.592;8.868;2022-07-29T10:56:25;96668.75;;;18.99;100.00
6829;BME280;17930;48.592;8.868;2022-07-29T10:59:23;96656.84;;;19.25;100.00
6829;BME280;17930;48.592;8.868;2022-07-29T11:01:52;96647.28;;;19.56;100.00
6829;BME280;17930;48.592;8.868;2022-07-29T11:07:20;96630.50;;;20.78;100.00
6829;BME280;17930;48.592;8.868;2022-07-29T11:10:21;96641.00;;;21.02;100.00
6829;BME280;17930;48.592;8.868;2022-07-29T11:12:48;96636.97;;;20.93;100.00
6829;BME280;17930;48.592;8.868;2022-07-29T11:15:16;96641.28;;;21.12;100.00
6829;BME280;17930;48.592;8.868;2022-07-29T11:18:07;96636.84;;;21.32;100.00
6829;BME280;17930;48.592;8.868;2022-07-29T11:20:36;96632.41;;;21.36;100.00
6829;BME280;17930;48.592;8.868;2022-07-29T11:23:35;96628.78;;;21.44;100.00
6829;BME280;17930;48.592;8.868;2022-07-29T11:26:17;96626.34;;;21.51;100.00
6829;BME280;17930;48.592;8.868;2022-07-29T11:28:57;96632.00;;;21.64;100.00
6829;BME280;17930;48.592;8.868;2022-07-29T11:31:34;96627.06;;;21.82;100.00
6829;BME280;17930;48.592;8.868;2022-07-29T11:34:19;96619.81;;;22.13;100.00
6829;BME280;17930;48.592;8.868;2022-07-29T11:37:13;96628.84;;;22.62;100.00
6829;BME280;17930;48.592;8.868;2022-07-29T11:39:43;96626.69;;;22.89;100.00
6829;BME280;17930;48.592;8.868;2022-07-29T11:42:37;96627.72;;;23.45;100.00
6829;BME280;17930;48.592;8.868;2022-07-29T11:45:05;96614.94;;;24.02;100.00
6829;BME280;17930;48.592;8.868;2022-07-29T11:47:34;96623.31;;;24.91;100.00
6829;BME280;17930;48.592;8.868;2022-07-29T11:50:03;96621.81;;;25.70;100.00
6829;BME280;17930;48.592;8.868;2022-07-29T11:52:32;96616.63;;;25.97;100.00
6829;BME280;17930;48.592;8.868;2022-07-29T11:55:05;96626.28;;;26.80;100.00
6829;BME280;17930;48.592;8.868;2022-07-29T11:57:34;96623.88;;;26.61;100.00
6829;BME280;17930;48.592;8.868;2022-07-29T12:00:06;96624.72;;;26.79;100.00
6829;BME280;17930;48.592;8.868;2022-07-29T12:02:40;96615.97;;;26.88;100.00
6829;BME280;17930;48.592;8.868;2022-07-29T12:05:08;96624.84;;;27.13;100.00
6829;BME280;17930;48.592;8.868;2022-07-29T12:07:36;96623.28;;;26.98;100.00
6829;BME280;17930;48.592;8.868;2022-07-29T12:10:06;96639.91;;;26.54;100.00
6829;BME280;17930;48.592;8.868;2022-07-29T12:12:33;96631.06;;;26.36;100.00
6829;BME280;17930;48.592;8.868;2022-07-29T12:15:14;96628.06;;;25.91;100.00
6829;BME280;17930;48.592;8.868;2022-07-29T12:17:42;96620.94;;;25.59;100.00
6829;BME280;17930;48.592;8.868;2022-07-29T12:20:10;96625.19;;;25.24;100.00
6829;BME280;17930;48.592;8.868;2022-07-29T12:22:40;96619.94;;;25.34;100.00
6829;BME280;17930;48.592;8.868;2022-07-29T12:25:13;96625.78;;;25.46;100.00
6829;BME280;17930;48.592;8.868;2022-07-29T12:27:42;96630.38;;;25.10;100.00
6829;BME280;17930;48.592;8.868;2022-07-29T12:30:14;96639.03;;;24.64;100.00
6829;BME280;17930;48.592;8.868;2022-07-29T12:32:44;96653.31;;;24.49;100.00
6829;BME280;17930;48.592;8.868;2022-07-29T12:35:12;96680.75;;;23.53;100.00
6829;BME280;17930;48.592;8.868;2022-07-29T12:37:42;96714.31;;;22.11;100.00
6829;BME280;17930;48.592;8.868;2022-07-29T12:40:12;96727.28;;;21.11;100.00
6829;BME280;17930;48.592;8.868;2022-07-29T12:42:39;96712.81;;;20.82;100.00
6829;BME280;17930;48.592;8.868;2022-07-29T12:45:07;96697.28;;;20.56;100.00
6829;BME280;17930;48.592;8.868;2022-07-29T12:47:50;96711.84;;;20.11;100.00
6829;BME280;17930;48.592;8.868;2022-07-29T12:50:17;96706.75;;;20.18;100.00
6829;BME280;17930;48.592;8.868;2022-07-29T12:52:44;96692.06;;;19.85;100.00
6829;BME280;17930;48.592;8.868;2022-07-29T12:55:12;96681.03;;;19.83;100.00
6829;BME280;17930;48.592;8.868;2022-07-29T12:57:47;96688.31;;;19.86;100.00
6829;BME280;17930;48.592;8.868;2022-07-29T13:00:14;96684.94;;;20.49;100.00
6829;BME280;17930;48.592;8.868;2022-07-29T13:02:42;96678.38;;;20.97;100.00
6829;BME280;17930;48.592;8.868;2022-07-29T13:05:10;96674.50;;;21.22;100.00
6829;BME280;17930;48.592;8.868;2022-07-29T13:07:38;96670.38;;;21.67;100.00
6829;BME280;17930;48.592;8.868;2022-07-29T13:10:17;96665.88;;;21.86;100.00
6829;BME280;17930;48.592;8.868;2022-07-29T13:13:06;96673.59;;;21.91;100.00
6829;BME280;17930;48.592;8.868;2022-07-29T13:15:35;96674.38;;;21.61;100.00
6829;BME280;17930;48.592;8.868;2022-07-29T13:18:03;96670.59;;;21.47;100.00
6829;BME280;17930;48.592;8.868;2022-07-29T13:20:30;96672.94;;;21.79;100.00